Time;durP1;ratioP1;P1;durP2;ratioP2;P2;SDS_P1;SDS_P2;PMS_P1;PMS_P2;Temp;Humidity;BMP_temperature;BMP_pressure;BME280_temperature;BME280_humidity;BME280_pressure;Samples;Min_cycle;Max_cycle;Signal;HPM_P1;HPM_P2
2023/07/08 00:00:25;;;;;;;7.40;5.90;;;;;;;23.49;69.57;99907.39;105657;1252;60483;-74
2023/07/08 00:02:53;;;;;;;6.90;6.10;;;;;;;23.49;69.60;99905.93;105654;1254;65393;-75
2023/07/08 00:05:21;;;;;;;7.00;6.30;;;;;;;23.49;69.70;99899.14;105578;1252;60443;-74
2023/07/08 00:07:47;;;;;;;7.20;6.50;;;;;;;23.47;69.62;99901.51;105829;1251;63901;-73
2023/07/08 00:10:18;;;;;;;7.00;6.40;;;;;;;23.46;69.74;99899.70;105730;1251;60520;-73
2023/07/08 00:12:51;;;;;;;6.80;6.30;;;;;;;23.45;69.79;99896.20;105703;1251;60457;-73
2023/07/08 00:15:20;;;;;;;6.60;5.90;;;;;;;23.44;69.81;99896.13;105619;1258;65218;-74
2023/07/08 00:17:47;;;;;;;7.70;5.80;;;;;;;23.44;69.76;99892.71;105778;1256;60635;-73
2023/07/08 00:20:17;;;;;;;9.10;5.50;;;;;;;23.44;69.73;99886.25;105691;1251;64077;-73
2023/07/08 00:22:46;;;;;;;7.40;5.10;;;;;;;23.47;69.90;99879.98;105398;1258;60420;-73
2023/07/08 00:25:15;;;;;;;5.20;4.50;;;;;;;23.45;70.20;99862.83;105762;1253;60328;-73
2023/07/08 00:27:42;;;;;;;8.20;4.40;;;;;;;23.43;70.19;99844.16;105728;1256;65276;-73
2023/07/08 00:30:21;;;;;;;7.10;4.40;;;;;;;23.43;70.21;99826.96;105722;1251;60459;-73
2023/07/08 00:32:53;;;;;;;6.30;4.20;;;;;;;23.40;70.33;99813.27;105701;1253;64073;-73
2023/07/08 00:35:41;;;;;;;7.20;4.40;;;;;;;23.38;70.30;99802.02;105725;1251;60574;-73
2023/07/08 00:38:14;;;;;;;6.90;4.40;;;;;;;23.35;70.24;99782.77;105738;1251;60441;-73
2023/07/08 00:40:49;;;;;;;4.90;4.50;;;;;;;23.31;70.31;99771.55;105634;1251;63804;-73
2023/07/08 00:43:16;;;;;;;6.30;4.40;;;;;;;23.28;70.49;99756.16;105772;1251;60626;-73
2023/07/08 00:45:48;;;;;;;6.50;4.10;;;;;;;23.27;70.42;99749.27;105840;1253;63944;-73
2023/07/08 00:48:30;;;;;;;4.70;4.10;;;;;;;23.26;70.47;99751.27;105753;1259;60448;-73
2023/07/08 00:50:57;;;;;;;6.30;4.00;;;;;;;23.26;70.40;99752.10;105739;1252;60585;-73
2023/07/08 00:53:27;;;;;;;4.20;3.80;;;;;;;23.25;70.46;99756.75;105551;1261;65220;-73
2023/07/08 00:55:59;;;;;;;4.80;4.20;;;;;;;23.24;70.46;99759.81;105810;1256;60433;-73
2023/07/08 00:58:29;;;;;;;5.20;3.80;;;;;;;23.22;70.35;99767.26;105767;1253;63747;-73
2023/07/08 01:00:56;;;;;;;7.10;3.80;;;;;;;23.22;70.45;99774.36;105931;1253;60480;-73
2023/07/08 01:03:24;;;;;;;4.10;3.70;;;;;;;23.21;70.52;99781.57;105939;1251;60321;-73
2023/07/08 01:05:51;;;;;;;4.30;3.90;;;;;;;23.22;70.49;99784.98;105546;1252;65159;-73
2023/07/08 01:08:18;;;;;;;3.80;3.40;;;;;;;23.21;70.41;99786.00;105728;1251;60458;-73
2023/07/08 01:10:49;;;;;;;4.60;4.10;;;;;;;23.23;70.39;99785.20;105654;1257;63828;-73
2023/07/08 01:13:16;;;;;;;5.50;4.40;;;;;;;23.23;70.44;99788.35;105889;1251;60443;-73
2023/07/08 01:15:43;;;;;;;5.70;4.20;;;;;;;23.22;70.34;99786.78;105871;1251;60425;-73
2023/07/08 01:18:12;;;;;;;5.70;4.80;;;;;;;23.22;70.38;99780.36;105859;1257;64996;-73
2023/07/08 01:20:39;;;;;;;5.70;5.10;;;;;;;23.22;70.34;99771.66;106019;1256;60534;-73
2023/07/08 01:23:06;;;;;;;5.90;5.30;;;;;;;23.19;70.33;99760.33;106041;1253;63815;-73
2023/07/08 01:25:33;;;;;;;6.00;5.40;;;;;;;23.16;70.35;99750.23;105808;1252;60362;-73
2023/07/08 01:28:00;;;;;;;5.30;4.80;;;;;;;23.13;70.35;99747.46;105970;1252;60527;-73
2023/07/08 01:30:26;;;;;;;5.70;5.10;;;;;;;23.12;70.29;99741.92;105737;1259;65295;-73
2023/07/08 01:32:59;;;;;;;5.70;4.60;;;;;;;23.09;70.27;99742.17;105773;1258;60511;-73
2023/07/08 01:35:27;;;;;;;6.00;5.20;;;;;;;23.05;70.24;99736.80;105833;1251;63934;-73
2023/07/08 01:37:59;;;;;;;6.30;5.40;;;;;;;23.02;70.26;99725.10;105801;1253;60407;-73
2023/07/08 01:40:28;;;;;;;5.40;4.70;;;;;;;22.99;70.19;99716.09;105837;1256;60345;-74
2023/07/08 01:42:56;;;;;;;6.10;5.40;;;;;;;23.00;70.22;99715.09;105773;1252;63792;-74
2023/07/08 01:45:24;;;;;;;5.80;5.20;;;;;;;22.98;70.14;99710.70;105762;1253;60537;-73
2023/07/08 01:47:59;;;;;;;5.80;5.20;;;;;;;22.96;70.22;99703.95;105793;1254;63927;-73
2023/07/08 01:50:27;;;;;;;5.80;5.30;;;;;;;22.96;70.19;99700.05;105860;1253;60422;-73
2023/07/08 01:52:53;;;;;;;5.80;5.00;;;;;;;22.95;70.17;99694.06;105918;1251;60479;-74
2023/07/08 01:55:22;;;;;;;7.30;5.20;;;;;;;22.93;70.24;99689.61;106031;1256;64992;-73
2023/07/08 01:57:51;;;;;;;5.70;5.20;;;;;;;22.92;70.18;99688.26;105893;1253;60545;-73
2023/07/08 02:00:18;;;;;;;5.80;5.20;;;;;;;22.91;70.24;99687.48;105695;1256;64100;-73
2023/07/08 02:02:45;;;;;;;6.60;5.20;;;;;;;22.90;70.26;99681.52;105814;1253;60365;-73
2023/07/08 02:05:12;;;;;;;5.70;5.10;;;;;;;22.89;70.30;99687.08;105643;1253;60512;-73
2023/07/08 02:07:40;;;;;;;5.80;5.30;;;;;;;22.89;70.28;99695.00;105830;1251;65200;-73
2023/07/08 02:10:07;;;;;;;5.60;5.00;;;;;;;22.88;70.33;99699.39;105707;1253;60459;-73
2023/07/08 02:12:34;;;;;;;6.20;5.10;;;;;;;22.88;70.31;99698.53;105819;1253;64029;-73
2023/07/08 02:15:01;;;;;;;6.10;4.80;;;;;;;22.89;70.38;99698.83;105712;1259;60401;-73
2023/07/08 02:17:28;;;;;;;5.70;5.00;;;;;;;22.89;70.34;99696.83;105690;1253;60459;-74
2023/07/08 02:19:56;;;;;;;5.10;4.60;;;;;;;22.89;70.45;99694.20;105643;1258;65284;-74
2023/07/08 02:22:23;;;;;;;5.60;5.10;;;;;;;22.92;70.44;99691.69;105733;1253;60457;-72
2023/07/08 02:24:50;;;;;;;5.30;4.90;;;;;;;22.94;70.41;99694.45;105607;1254;64007;-72
2023/07/08 02:27:16;;;;;;;5.50;5.00;;;;;;;22.96;70.46;99697.38;105686;1256;60321;-72
2023/07/08 02:29:43;;;;;;;5.50;5.00;;;;;;;22.99;70.31;99697.53;105610;1253;60636;-72
2023/07/08 02:32:10;;;;;;;6.20;5.20;;;;;;;22.98;70.44;99688.80;105804;1256;65172;-72
2023/07/08 02:34:37;;;;;;;5.60;5.00;;;;;;;22.98;70.52;99695.76;105841;1252;60507;-73
2023/07/08 02:37:04;;;;;;;5.60;5.00;;;;;;;23.00;70.45;99698.98;105633;1253;64008;-72
2023/07/08 02:39:33;;;;;;;5.70;5.20;;;;;;;23.03;70.52;99705.73;105681;1251;60544;-73
2023/07/08 02:42:00;;;;;;;5.30;4.80;;;;;;;23.04;70.56;99706.47;105630;1254;60457;-73
2023/07/08 02:44:27;;;;;;;5.50;5.00;;;;;;;23.06;70.48;99699.86;105770;1256;65056;-74
2023/07/08 02:46:54;;;;;;;5.50;5.00;;;;;;;23.15;70.38;99694.48;105784;1256;60516;-74
2023/07/08 02:49:20;;;;;;;5.20;4.70;;;;;;;23.16;70.41;99690.84;105752;1256;60601;-74
2023/07/08 02:51:48;;;;;;;5.30;4.80;;;;;;;23.16;70.44;99694.32;105807;1253;60550;-74
2023/07/08 02:54:15;;;;;;;5.60;5.00;;;;;;;23.18;70.25;99692.41;105684;1253;60438;-74
2023/07/08 02:56:41;;;;;;;6.20;5.20;;;;;;;23.17;70.30;99691.54;105665;1256;60473;-72
2023/07/08 02:59:08;;;;;;;5.40;4.90;;;;;;;23.21;70.16;99694.98;105662;1258;60558;-74
2023/07/08 03:01:41;;;;;;;5.50;5.00;;;;;;;23.23;70.19;99695.62;105794;1253;64094;-74
2023/07/08 03:04:12;;;;;;;5.20;4.70;;;;;;;23.23;70.14;99698.52;105633;1254;60521;-73
2023/07/08 03:06:43;;;;;;;5.90;4.90;;;;;;;23.22;70.08;99705.46;105727;1253;60483;-73
2023/07/08 03:09:11;;;;;;;5.80;5.10;;;;;;;23.22;70.21;99714.13;105720;1251;65322;-73
2023/07/08 03:11:41;;;;;;;6.50;4.90;;;;;;;23.22;70.23;99720.34;105865;1253;60473;-73
2023/07/08 03:14:08;;;;;;;5.00;4.60;;;;;;;23.22;70.14;99721.58;105725;1253;64028;-73
2023/07/08 03:16:37;;;;;;;4.90;4.50;;;;;;;23.22;70.27;99715.65;105704;1255;60366;-73
2023/07/08 03:19:05;;;;;;;4.70;4.30;;;;;;;23.21;70.20;99712.02;105875;1252;60521;-73
2023/07/08 03:21:33;;;;;;;6.70;4.60;;;;;;;23.18;70.31;99709.69;105672;1256;65392;-73
2023/07/08 03:24:00;;;;;;;5.20;4.70;;;;;;;23.18;70.28;99704.42;105786;1253;60483;-73
2023/07/08 03:26:27;;;;;;;5.40;4.70;;;;;;;23.17;70.24;99703.92;105888;1254;63867;-73
2023/07/08 03:28:58;;;;;;;5.40;4.30;;;;;;;23.22;70.21;99701.90;105682;1253;60435;-73
2023/07/08 03:31:25;;;;;;;5.20;4.70;;;;;;;23.23;70.11;99698.03;105715;1259;60450;-74
2023/07/08 03:33:53;;;;;;;4.80;4.20;;;;;;;23.18;70.17;99691.25;105668;1253;65282;-74
2023/07/08 03:36:22;;;;;;;4.60;4.10;;;;;;;23.17;70.22;99683.09;105644;1253;60497;-74
2023/07/08 03:38:53;;;;;;;7.30;4.20;;;;;;;23.17;70.24;99675.72;105756;1254;64478;-74
2023/07/08 03:41:20;;;;;;;4.60;4.20;;;;;;;23.17;70.16;99672.94;105706;1253;60825;-74
2023/07/08 03:43:50;;;;;;;5.10;3.70;;;;;;;23.17;70.10;99666.17;105795;1252;60528;-74
2023/07/08 03:46:20;;;;;;;4.80;3.90;;;;;;;23.16;70.05;99659.95;105908;1256;65034;-74
2023/07/08 03:48:47;;;;;;;4.80;3.70;;;;;;;23.15;70.02;99663.40;105619;1253;60543;-74
2023/07/08 03:51:25;;;;;;;5.10;3.60;;;;;;;23.15;70.07;99667.55;105754;1256;63694;-74
2023/07/08 03:53:52;;;;;;;4.10;3.20;;;;;;;23.13;70.12;99673.28;105671;1253;60479;-72
2023/07/08 03:56:19;;;;;;;4.50;3.30;;;;;;;23.14;70.13;99685.91;105852;1253;60425;-73
2023/07/08 03:58:46;;;;;;;3.70;3.30;;;;;;;23.13;70.19;99695.05;105878;1256;65409;-72
2023/07/08 04:01:15;;;;;;;3.80;3.40;;;;;;;23.14;70.10;99692.42;105989;1251;60537;-73
2023/07/08 04:03:44;;;;;;;5.20;3.30;;;;;;;23.13;70.22;99699.60;105868;1254;63836;-73
2023/07/08 04:06:12;;;;;;;3.80;3.30;;;;;;;23.13;70.38;99706.98;105900;1256;60469;-73
2023/07/08 04:08:39;;;;;;;3.00;2.70;;;;;;;23.12;70.26;99714.40;105687;1253;60436;-73
2023/07/08 04:11:05;;;;;;;3.50;3.20;;;;;;;23.12;70.33;99721.73;105522;1252;64928;-74
2023/07/08 04:13:32;;;;;;;4.10;2.90;;;;;;;23.12;70.39;99732.15;105728;1256;60334;-73
2023/07/08 04:16:00;;;;;;;4.30;2.90;;;;;;;23.17;70.26;99735.05;105687;1253;63985;-73
2023/07/08 04:18:27;;;;;;;3.90;2.90;;;;;;;23.15;70.33;99732.29;105904;1253;60467;-73
2023/07/08 04:20:54;;;;;;;3.10;2.70;;;;;;;23.08;70.42;99727.20;105911;1253;60502;-73
2023/07/08 04:23:23;;;;;;;4.30;2.90;;;;;;;23.15;70.32;99729.80;105813;1257;65121;-73
2023/07/08 04:25:52;;;;;;;2.50;2.30;;;;;;;23.20;70.16;99738.10;105823;1253;60553;-73
2023/07/08 04:28:19;;;;;;;2.70;2.40;;;;;;;23.18;70.19;99742.93;105763;1258;64057;-73
2023/07/08 04:30:45;;;;;;;3.30;2.40;;;;;;;23.19;70.21;99748.44;105769;1253;60390;-74
2023/07/08 04:33:13;;;;;;;2.90;2.10;;;;;;;23.20;70.16;99747.75;105749;1253;60558;-72
2023/07/08 04:35:41;;;;;;;3.60;2.10;;;;;;;23.23;70.09;99744.83;105711;1253;65264;-73
2023/07/08 04:38:17;;;;;;;3.00;2.00;;;;;;;23.23;69.94;99749.09;105696;1253;61981;-73
2023/07/08 04:40:46;;;;;;;3.20;2.00;;;;;;;23.24;69.88;99761.72;105889;1256;63947;-74
2023/07/08 04:43:12;;;;;;;2.40;2.20;;;;;;;23.26;69.82;99772.98;106087;1256;60325;-74
2023/07/08 04:45:41;;;;;;;4.20;1.90;;;;;;;23.28;69.71;99776.84;105826;1252;60473;-71
2023/07/08 04:48:13;;;;;;;3.00;2.10;;;;;;;23.32;69.50;99778.29;105775;1253;63805;-72
2023/07/08 04:50:44;;;;;;;2.20;2.00;;;;;;;23.37;69.40;99776.44;105720;1253;60543;-72
2023/07/08 04:53:11;;;;;;;2.40;2.10;;;;;;;23.37;69.37;99785.59;105499;1256;64042;-72
2023/07/08 04:55:40;;;;;;;2.20;2.00;;;;;;;23.39;69.13;99791.05;105685;1258;60443;-72
2023/07/08 04:58:07;;;;;;;2.90;2.10;;;;;;;23.38;69.10;99787.91;105918;1256;60406;-73
2023/07/08 05:00:33;;;;;;;2.90;2.10;;;;;;;23.33;69.24;99790.68;105647;1257;65195;-74
2023/07/08 05:03:01;;;;;;;2.90;2.00;;;;;;;23.33;69.34;99792.09;105837;1253;60605;-74
2023/07/08 05:05:31;;;;;;;2.50;2.20;;;;;;;23.34;69.36;99789.88;105929;1254;63825;-73
2023/07/08 05:07:57;;;;;;;2.60;2.40;;;;;;;23.38;69.23;99787.09;105592;1253;60493;-73
2023/07/08 05:10:24;;;;;;;2.80;2.60;;;;;;;23.41;69.07;99788.79;105884;1253;60412;-73
2023/07/08 05:12:51;;;;;;;3.60;2.60;;;;;;;23.40;68.90;99786.61;105736;1256;65135;-74
2023/07/08 05:15:17;;;;;;;3.40;2.60;;;;;;;23.44;68.88;99785.66;105956;1256;60947;-73
2023/07/08 05:17:44;;;;;;;3.70;2.90;;;;;;;23.49;68.86;99782.80;105751;1253;60498;-74
2023/07/08 05:20:12;;;;;;;3.30;3.00;;;;;;;23.52;68.84;99783.02;105783;1253;60365;-73
2023/07/08 05:22:39;;;;;;;3.00;2.80;;;;;;;23.53;69.00;99779.32;105862;1253;60448;-74
2023/07/08 05:25:06;;;;;;;3.70;3.00;;;;;;;23.56;68.91;99777.85;105798;1253;65112;-74
2023/07/08 05:27:34;;;;;;;3.30;3.00;;;;;;;23.58;68.94;99774.11;105879;1254;60416;-73
2023/07/08 05:30:02;;;;;;;3.90;3.10;;;;;;;23.61;68.96;99774.10;105812;1254;63891;-73
2023/07/08 05:32:29;;;;;;;3.50;3.20;;;;;;;23.64;68.94;99777.94;105948;1253;60324;-73
2023/07/08 05:34:55;;;;;;;3.30;3.00;;;;;;;23.68;68.95;99776.83;105842;1254;60441;-74
2023/07/08 05:37:25;;;;;;;3.60;3.30;;;;;;;23.66;69.08;99778.00;105828;1253;65251;-73
2023/07/08 05:39:52;;;;;;;5.30;3.50;;;;;;;23.71;68.94;99781.39;105956;1251;60447;-74
2023/07/08 05:42:22;;;;;;;3.80;3.40;;;;;;;23.75;68.88;99778.88;105839;1253;64062;-73
2023/07/08 05:44:51;;;;;;;4.50;3.60;;;;;;;23.83;68.83;99776.85;105676;1252;60426;-75
2023/07/08 05:47:18;;;;;;;5.40;3.70;;;;;;;23.84;68.85;99766.63;105853;1254;60438;-74
2023/07/08 05:49:45;;;;;;;4.50;4.00;;;;;;;23.87;68.88;99756.15;105866;1256;65229;-73
2023/07/08 05:52:12;;;;;;;4.00;3.70;;;;;;;23.92;68.79;99750.80;105703;1251;60585;-74
2023/07/08 05:54:39;;;;;;;4.50;4.10;;;;;;;23.92;68.80;99749.68;105817;1253;63991;-73
2023/07/08 05:57:06;;;;;;;4.20;3.90;;;;;;;23.93;68.77;99751.55;105733;1255;60362;-73
2023/07/08 05:59:34;;;;;;;4.50;4.10;;;;;;;23.93;68.66;99749.98;105698;1258;60463;-73
2023/07/08 06:02:03;;;;;;;4.30;3.90;;;;;;;23.95;68.58;99753.81;105671;1253;63961;-73
2023/07/08 06:04:30;;;;;;;4.30;3.90;;;;;;;23.97;68.49;99751.08;105842;1256;60449;-73
2023/07/08 06:06:57;;;;;;;4.60;4.00;;;;;;;24.01;68.41;99749.34;105887;1256;63785;-74
2023/07/08 06:09:24;;;;;;;4.70;4.00;;;;;;;24.06;68.39;99742.73;105930;1251;60506;-73
2023/07/08 06:11:51;;;;;;;4.60;4.20;;;;;;;24.10;68.27;99739.24;105868;1253;60451;-73
2023/07/08 06:14:17;;;;;;;4.60;4.20;;;;;;;24.11;68.08;99726.61;105817;1253;65212;-73
2023/07/08 06:16:44;;;;;;;4.80;4.40;;;;;;;24.15;68.04;99723.37;105725;1257;60527;-73
2023/07/08 06:19:14;;;;;;;5.10;4.60;;;;;;;24.20;68.02;99724.17;105793;1257;63876;-73
2023/07/08 06:21:41;;;;;;;4.70;4.30;;;;;;;24.24;67.82;99721.60;105937;1253;60331;-73
2023/07/08 06:24:08;;;;;;;6.00;4.50;;;;;;;24.29;67.83;99722.95;105835;1253;60513;-73
2023/07/08 06:26:35;;;;;;;5.10;4.60;;;;;;;24.34;67.73;99718.31;105699;1258;65271;-73
2023/07/08 06:29:02;;;;;;;4.80;4.40;;;;;;;24.37;67.70;99719.34;105657;1258;60438;-75
2023/07/08 06:31:30;;;;;;;4.90;4.50;;;;;;;24.41;67.54;99713.61;105664;1256;63907;-73
2023/07/08 06:33:57;;;;;;;4.90;4.50;;;;;;;24.42;67.54;99711.08;105772;1254;60341;-73
2023/07/08 06:36:23;;;;;;;4.90;4.40;;;;;;;24.47;67.58;99712.20;105574;1256;60546;-73
2023/07/08 06:38:50;;;;;;;5.00;4.60;;;;;;;24.54;67.55;99710.35;105797;1259;65270;-74
2023/07/08 06:41:17;;;;;;;7.00;5.50;;;;;;;24.68;67.66;99711.63;105943;1251;60408;-74
2023/07/08 06:43:43;;;;;;;5.30;4.80;;;;;;;24.82;67.53;99715.48;105909;1255;60446;-73
2023/07/08 06:46:18;;;;;;;5.10;4.60;;;;;;;24.95;67.39;99720.77;105968;1256;60361;-74
2023/07/08 06:48:45;;;;;;;5.40;4.90;;;;;;;25.04;67.03;99724.32;105925;1254;60444;-73
2023/07/08 06:51:16;;;;;;;5.50;5.00;;;;;;;25.17;66.70;99729.77;105958;1256;65180;-73
2023/07/08 06:53:43;;;;;;;5.00;4.60;;;;;;;25.28;66.50;99730.96;105793;1256;60505;-73
2023/07/08 06:56:10;;;;;;;5.20;4.70;;;;;;;25.36;66.04;99729.81;105751;1252;63726;-73
2023/07/08 06:58:38;;;;;;;4.90;4.50;;;;;;;25.35;65.27;99732.33;105954;1254;60332;-73
2023/07/08 07:01:04;;;;;;;6.60;4.70;;;;;;;25.30;64.81;99735.34;105935;1253;60444;-73
2023/07/08 07:03:31;;;;;;;5.20;4.70;;;;;;;25.21;64.78;99739.59;105836;1255;65266;-72
2023/07/08 07:05:58;;;;;;;5.40;4.90;;;;;;;25.15;64.98;99740.52;105798;1256;60476;-73
2023/07/08 07:08:25;;;;;;;5.70;5.10;;;;;;;25.10;64.77;99742.06;105703;1256;64018;-73
2023/07/08 07:10:52;;;;;;;6.00;5.10;;;;;;;25.09;64.79;99741.65;105795;1256;60514;-73
2023/07/08 07:13:21;;;;;;;5.70;5.20;;;;;;;25.12;64.61;99742.41;105920;1254;60531;-74
2023/07/08 07:15:48;;;;;;;5.80;5.20;;;;;;;25.09;64.27;99740.39;105772;1255;65263;-73
2023/07/08 07:18:21;;;;;;;5.90;5.30;;;;;;;25.10;64.19;99741.60;105957;1256;60565;-73
2023/07/08 07:20:53;;;;;;;6.30;5.60;;;;;;;25.11;64.07;99743.54;105948;1256;64037;-73
2023/07/08 07:23:20;;;;;;;6.20;5.70;;;;;;;25.11;64.01;99739.21;105911;1252;60459;-73
2023/07/08 07:25:50;;;;;;;7.30;5.80;;;;;;;25.10;64.04;99736.73;105865;1253;60437;-73
2023/07/08 07:28:17;;;;;;;6.70;6.00;;;;;;;25.04;64.09;99744.96;105958;1257;65051;-73
2023/07/08 07:30:44;;;;;;;7.00;5.60;;;;;;;24.98;64.05;99747.16;105786;1257;60441;-73
2023/07/08 07:33:11;;;;;;;6.70;6.10;;;;;;;24.91;64.06;99751.46;105821;1253;178254;-73
2023/07/08 07:35:44;;;;;;;6.50;5.90;;;;;;;24.78;64.19;99759.45;105775;1255;60389;-73
2023/07/08 07:38:11;;;;;;;6.60;6.00;;;;;;;24.71;64.20;99757.89;105670;1256;60453;-73
2023/07/08 07:40:39;;;;;;;7.60;6.60;;;;;;;24.67;64.44;99755.20;105980;1251;65048;-73
2023/07/08 07:43:06;;;;;;;6.70;6.10;;;;;;;24.68;64.54;99758.93;105787;1256;60459;-74
2023/07/08 07:45:33;;;;;;;6.80;6.20;;;;;;;24.72;64.51;99766.90;105741;1256;64053;-73
2023/07/08 07:47:59;;;;;;;7.10;5.90;;;;;;;24.70;64.53;99763.43;105806;1255;60392;-73
2023/07/08 07:50:26;;;;;;;7.10;6.40;;;;;;;24.68;64.74;99763.54;105921;1251;60518;-73
2023/07/08 07:52:53;;;;;;;6.50;5.90;;;;;;;24.69;64.73;99765.59;105935;1257;65300;-74
2023/07/08 07:55:20;;;;;;;7.50;6.70;;;;;;;24.73;64.65;99771.24;105875;1258;60462;-73
2023/07/08 07:57:46;;;;;;;7.00;6.30;;;;;;;24.74;64.69;99770.04;105706;1257;64084;-73
2023/07/08 08:00:14;;;;;;;6.50;5.80;;;;;;;24.78;64.70;99769.10;105632;1257;60582;-73
2023/07/08 08:02:41;;;;;;;6.30;5.70;;;;;;;24.80;64.53;99767.83;105813;1259;60487;-73
2023/07/08 08:05:08;;;;;;;7.50;5.70;;;;;;;24.84;64.35;99770.23;105637;1259;65730;-74
2023/07/08 08:07:36;;;;;;;6.00;5.50;;;;;;;24.88;64.24;99774.28;105744;1257;60543;-73
2023/07/08 08:10:03;;;;;;;5.80;5.10;;;;;;;24.92;63.99;99770.90;105696;1257;64194;-73
2023/07/08 08:12:30;;;;;;;6.80;4.90;;;;;;;25.00;63.73;99767.80;105811;1253;60360;-75
2023/07/08 08:15:11;;;;;;;5.40;4.90;;;;;;;25.06;63.76;99767.01;105881;1254;60519;-76
2023/07/08 08:17:37;;;;;;;4.90;4.40;;;;;;;25.08;63.72;99765.93;105697;1257;65171;-75
2023/07/08 08:20:06;;;;;;;4.50;4.00;;;;;;;25.16;63.27;99768.66;105835;1257;60416;-74
2023/07/08 08:22:32;;;;;;;5.30;4.10;;;;;;;25.24;62.63;99765.95;105725;1257;63743;-74
2023/07/08 08:24:59;;;;;;;4.20;3.80;;;;;;;25.22;61.97;99766.57;105674;1257;60425;-74
2023/07/08 08:27:26;;;;;;;4.20;3.50;;;;;;;25.20;61.72;99769.27;105601;1256;60419;-74
2023/07/08 08:29:52;;;;;;;3.90;3.50;;;;;;;25.21;61.75;99770.91;105824;1256;60508;-74
2023/07/08 08:32:19;;;;;;;3.40;3.10;;;;;;;25.23;61.66;99766.48;105870;1256;60407;-74
2023/07/08 08:34:47;;;;;;;3.40;3.00;;;;;;;25.24;61.74;99761.67;105891;1256;64841;-78
2023/07/08 08:37:14;;;;;;;3.10;2.70;;;;;;;25.29;61.55;99760.84;105877;1251;60969;-73
2023/07/08 08:39:40;;;;;;;3.40;2.40;;;;;;;25.34;61.12;99760.58;105927;1256;60429;-74
2023/07/08 08:42:24;;;;;;;3.30;2.60;;;;;;;25.38;60.66;99762.67;105977;1256;65228;-76
2023/07/08 08:44:50;;;;;;;;;;;;;;;25.40;60.48;99762.58;105891;1256;60355;-75
2023/07/08 08:47:40;;;;;;;3.40;2.40;;;;;;;25.44;60.60;99760.59;105688;1261;63998;-74
2023/07/08 08:50:25;;;;;;;2.20;2.00;;;;;;;25.52;60.76;99764.46;105737;1254;60514;-75
2023/07/08 08:52:54;;;;;;;3.50;2.30;;;;;;;25.59;60.49;99766.00;105845;1254;60460;-74
2023/07/08 08:55:24;;;;;;;3.00;2.30;;;;;;;25.61;60.19;99769.13;105901;1257;63787;-74
2023/07/08 08:58:17;;;;;;;2.20;1.90;;;;;;;25.64;60.06;99768.48;105844;1258;60489;-73
2023/07/08 09:00:58;;;;;;;2.40;2.10;;;;;;;25.68;59.87;99770.71;105930;1256;63839;-73
2023/07/08 09:03:53;;;;;;;3.60;2.10;;;;;;;25.76;59.84;99766.20;105928;1257;60468;-74
2023/07/08 09:06:23;;;;;;;3.80;1.90;;;;;;;25.80;59.63;99767.44;105699;1256;60429;-73
2023/07/08 09:08:50;;;;;;;2.50;1.90;;;;;;;25.83;59.05;99770.58;106012;1257;63683;-73
2023/07/08 09:11:20;;;;;;;2.30;1.80;;;;;;;25.81;58.66;99767.14;106037;1258;60685;-73
2023/07/08 09:13:47;;;;;;;3.70;2.00;;;;;;;25.81;58.56;99767.44;105974;1255;65293;-74
2023/07/08 09:16:41;;;;;;;3.20;2.10;;;;;;;25.86;58.70;99773.91;105827;1256;60367;-73
2023/07/08 09:19:13;;;;;;;4.90;2.20;;;;;;;25.95;58.38;99777.62;105922;1258;60486;-74
2023/07/08 09:21:49;;;;;;;2.90;2.10;;;;;;;26.05;58.25;99776.60;105896;1266;64940;-74
2023/07/08 09:24:19;;;;;;;2.50;2.30;;;;;;;26.18;58.38;99778.39;105951;1254;60406;-75
2023/07/08 09:26:46;;;;;;;3.90;2.40;;;;;;;26.26;57.97;99777.52;105974;1255;71854;-73
2023/07/08 09:29:13;;;;;;;3.50;2.30;;;;;;;26.33;57.74;99780.70;105735;1254;60381;-76
2023/07/08 09:31:41;;;;;;;4.20;2.40;;;;;;;26.37;57.74;99783.70;106048;1254;60434;-78
2023/07/08 09:34:12;;;;;;;5.50;2.40;;;;;;;26.35;57.70;99780.42;105964;1254;63815;-75
2023/07/08 09:36:41;;;;;;;3.00;2.70;;;;;;;26.34;57.72;99780.94;105932;1256;60294;-74
2023/07/08 09:39:17;;;;;;;3.20;2.90;;;;;;;26.37;57.48;99785.07;105954;1258;63715;-76
2023/07/08 09:41:45;;;;;;;4.00;2.80;;;;;;;26.39;57.48;99782.96;106003;1251;60432;-76
2023/07/08 09:44:29;;;;;;;3.50;3.20;;;;;;;26.46;57.75;99786.36;106078;1251;60434;-76
2023/07/08 09:46:58;;;;;;;3.90;3.00;;;;;;;26.54;57.70;99785.48;105877;1252;65230;-75
2023/07/08 09:49:37;;;;;;;5.50;3.40;;;;;;;26.61;57.58;99785.91;105850;1251;60342;-74
2023/07/08 09:52:04;;;;;;;3.80;3.30;;;;;;;26.62;57.27;99786.89;105804;1255;64117;-74
2023/07/08 09:54:32;;;;;;;3.80;3.30;;;;;;;26.59;57.05;99788.25;105918;1251;60432;-75
2023/07/08 09:57:25;;;;;;;5.40;3.50;;;;;;;26.55;57.35;99789.38;106000;1251;60476;-75
2023/07/08 10:00:02;;;;;;;5.40;4.00;;;;;;;26.52;57.20;99790.27;105961;1257;65234;-73
2023/07/08 10:02:49;;;;;;;4.10;3.20;;;;;;;26.51;57.34;99789.48;106098;1251;60456;-73
2023/07/08 10:05:43;;;;;;;4.30;3.70;;;;;;;26.51;57.33;99791.94;105935;1252;62680;-73
2023/07/08 10:08:21;;;;;;;5.70;3.80;;;;;;;26.49;57.30;99796.77;105917;1251;60426;-73
2023/07/08 10:11:09;;;;;;;4.50;3.90;;;;;;;26.50;57.29;99801.29;105870;1256;60447;-73
2023/07/08 10:13:49;;;;;;;4.30;3.90;;;;;;;26.57;57.41;99800.50;105662;1257;65207;-74
2023/07/08 10:16:35;;;;;;;6.10;4.20;;;;;;;26.63;57.02;99803.00;105670;1251;60506;-73
2023/07/08 10:19:04;;;;;;;4.70;4.20;;;;;;;26.63;56.46;99805.82;105723;1260;62792;-75
2023/07/08 10:21:55;;;;;;;5.70;4.20;;;;;;;26.62;56.20;99806.84;105767;1254;60578;-74
2023/07/08 10:24:28;;;;;;;4.90;4.40;;;;;;;26.67;55.92;99814.90;105740;1251;60530;-73
2023/07/08 10:27:19;;;;;;;7.20;5.10;;;;;;;26.67;55.54;99816.20;105892;1251;63720;-74
2023/07/08 10:30:17;;;;;;;5.50;4.90;;;;;;;26.65;55.64;99822.13;105777;1251;60443;-73
2023/07/08 10:32:53;;;;;;;6.80;4.80;;;;;;;26.63;55.63;99832.80;105825;1258;63999;-73
2023/07/08 10:35:25;;;;;;;5.10;4.60;;;;;;;26.56;55.33;99838.46;105959;1251;60505;-73
2023/07/08 10:38:04;;;;;;;5.90;5.30;;;;;;;26.44;55.22;99841.13;105757;1254;60422;-73
2023/07/08 10:40:34;;;;;;;5.90;5.30;;;;;;;26.35;55.54;99839.77;105889;1251;64910;-73
2023/07/08 10:43:27;;;;;;;6.90;5.40;;;;;;;26.22;55.63;99841.06;106020;1251;60428;-74
2023/07/08 10:46:16;;;;;;;7.20;5.40;;;;;;;26.10;55.99;99848.80;105657;1257;64040;-73
2023/07/08 10:48:59;;;;;;;6.00;5.40;;;;;;;26.03;56.33;99848.36;105595;1254;60407;-73
2023/07/08 10:51:38;;;;;;;7.20;5.90;;;;;;;25.98;56.68;99850.67;106081;1256;60431;-73
2023/07/08 10:54:13;;;;;;;8.10;5.60;;;;;;;25.91;56.66;99852.75;105852;1256;65204;-73
2023/07/08 10:57:03;;;;;;;6.80;6.00;;;;;;;25.86;56.82;99852.11;105837;1251;60490;-73
2023/07/08 10:59:34;;;;;;;6.80;5.70;;;;;;;25.81;56.97;99851.20;105773;1251;64102;-73
2023/07/08 11:02:25;;;;;;;6.60;6.00;;;;;;;25.74;56.82;99847.04;105901;1259;60429;-73
2023/07/08 11:05:06;;;;;;;6.90;5.60;;;;;;;25.67;56.98;99852.24;105796;1256;60348;-73
2023/07/08 11:07:41;;;;;;;9.80;6.50;;;;;;;25.58;57.11;99847.60;105855;1251;65275;-73
2023/07/08 11:10:29;;;;;;;9.60;6.40;;;;;;;25.52;57.24;99847.33;105975;1256;60482;-75
2023/07/08 11:13:03;;;;;;;6.90;6.20;;;;;;;25.47;57.35;99848.64;106044;1251;63839;-73
2023/07/08 11:15:46;;;;;;;7.00;6.30;;;;;;;25.44;57.47;99851.23;105857;1251;60526;-73
2023/07/08 11:18:15;;;;;;;7.00;5.90;;;;;;;25.43;57.72;99850.71;105800;1256;60464;-73
2023/07/08 11:20:55;;;;;;;6.70;6.00;;;;;;;25.45;57.87;99839.02;105819;1252;65225;-73
2023/07/08 11:23:26;;;;;;;9.00;6.70;;;;;;;25.41;57.88;99840.30;105817;1257;60441;-73
2023/07/08 11:25:59;;;;;;;7.40;6.70;;;;;;;25.37;58.12;99848.25;105869;1251;64033;-73
2023/07/08 11:28:26;;;;;;;8.40;6.60;;;;;;;25.35;58.43;99848.91;105918;1251;60498;-73
2023/07/08 11:30:52;;;;;;;10.20;7.30;;;;;;;25.33;58.51;99849.40;105719;1251;60612;-74
2023/07/08 11:33:21;;;;;;;7.60;6.80;;;;;;;25.33;58.50;99846.58;105754;1257;60533;-73
2023/07/08 11:35:50;;;;;;;7.90;7.00;;;;;;;25.32;58.51;99844.81;105729;1254;60435;-73
2023/07/08 11:38:20;;;;;;;7.70;6.80;;;;;;;25.31;58.53;99845.13;105697;1257;63901;-73